Time;durP1;ratioP1;P1;durP2;ratioP2;P2;SDS_P1;SDS_P2;PMS_P1;PMS_P2;Temp;Humidity;BMP_temperature;BMP_pressure;BME280_temperature;BME280_humidity;BME280_pressure;Samples;Min_cycle;Max_cycle;Signal;HPM_P1;HPM_P2
2022/08/10 00:01:16;;;;;;;0.70;0.70;;;22.10;94.30;;;;;;5072827;28;20780;-69
2022/08/10 00:03:44;;;;;;;0.60;0.60;;;22.10;94.50;;;;;;5072470;28;20641;-69
2022/08/10 00:06:13;;;;;;;0.60;0.60;;;22.10;94.60;;;;;;5075896;28;20231;-70
2022/08/10 00:08:40;;;;;;;0.90;0.90;;;22.10;94.70;;;;;;5075534;28;20245;-70
2022/08/10 00:11:07;;;;;;;0.70;0.70;;;22.00;94.70;;;;;;5076603;28;20697;-70
2022/08/10 00:13:34;;;;;;;0.70;0.70;;;22.00;94.70;;;;;;5075666;28;20237;-69
2022/08/10 00:16:01;;;;;;;0.80;0.80;;;22.00;94.80;;;;;;5074563;28;20229;-70
2022/08/10 00:18:28;;;;;;;0.70;0.70;;;22.00;95.30;;;;;;5074524;28;20352;-70
2022/08/10 00:20:55;;;;;;;0.80;0.80;;;22.00;95.00;;;;;;5080495;28;20582;-70
2022/08/10 00:23:23;;;;;;;0.80;0.80;;;21.90;95.00;;;;;;5070624;28;20207;-71
2022/08/10 00:25:50;;;;;;;0.80;0.80;;;21.90;95.10;;;;;;5072542;28;20582;-71
2022/08/10 00:28:17;;;;;;;0.50;0.50;;;21.90;95.20;;;;;;5075583;28;20234;-69
2022/08/10 00:30:44;;;;;;;1.70;0.90;;;21.90;95.20;;;;;;5074424;28;20286;-70
2022/08/10 00:33:11;;;;;;;1.17;0.82;;;21.90;95.20;;;;;;5077753;28;20227;-71
2022/08/10 00:35:38;;;;;;;1.33;0.80;;;21.90;95.30;;;;;;5078938;28;20258;-70
2022/08/10 00:38:05;;;;;;;0.60;0.60;;;22.00;95.40;;;;;;5071957;28;20290;-70
2022/08/10 00:40:33;;;;;;;0.90;0.90;;;21.90;95.40;;;;;;5071157;28;20199;-70
2022/08/10 00:43:00;;;;;;;0.60;0.60;;;22.00;95.40;;;;;;5069630;28;20295;-70
2022/08/10 00:45:27;;;;;;;0.73;0.73;;;22.00;95.40;;;;;;5073784;28;20264;-70
2022/08/10 00:47:54;;;;;;;0.65;0.65;;;22.10;95.40;;;;;;5074226;28;20199;-70
2022/08/10 00:50:21;;;;;;;0.70;0.70;;;22.10;95.40;;;;;;5075051;28;20219;-69
2022/08/10 00:52:48;;;;;;;0.73;0.73;;;22.20;95.30;;;;;;5078768;28;20306;-69
2022/08/10 00:55:16;;;;;;;2.55;0.90;;;22.20;95.20;;;;;;5084314;28;20618;-70
2022/08/10 00:57:44;;;;;;;0.82;0.82;;;22.30;95.20;;;;;;5084519;28;20226;-70
2022/08/10 01:00:11;;;;;;;0.65;0.65;;;22.30;95.20;;;;;;5082514;28;20696;-70
2022/08/10 01:02:39;;;;;;;0.60;0.60;;;22.40;94.90;;;;;;5075264;28;20250;-70
2022/08/10 01:05:09;;;;;;;0.57;0.57;;;22.50;94.90;;;;;;5067581;28;20579;-69
2022/08/10 01:07:53;;;;;;;0.70;0.70;;;22.60;94.90;;;;;;5072329;28;20250;-69
2022/08/10 01:10:33;;;;;;;1.02;0.77;;;22.70;94.70;;;;;;5073247;28;20290;-71
2022/08/10 01:13:08;;;;;;;2.17;0.90;;;22.80;94.70;;;;;;5072198;28;20207;-71
2022/08/10 01:15:46;;;;;;;0.60;0.60;;;22.70;94.70;;;;;;5080838;28;20479;-72
2022/08/10 01:18:21;;;;;;;0.60;0.60;;;22.80;94.70;;;;;;5080103;28;20227;-71
2022/08/10 01:21:09;;;;;;;0.70;0.70;;;22.80;94.70;;;;;;5077919;28;20573;-70
2022/08/10 01:24:02;;;;;;;0.60;0.60;;;22.90;94.70;;;;;;5080676;28;20284;-73
2022/08/10 01:26:49;;;;;;;0.77;0.77;;;22.90;94.70;;;;;;5072682;28;20285;-70
2022/08/10 01:29:52;;;;;;;0.60;0.60;;;22.90;94.80;;;;;;5075285;28;20234;-71
2022/08/10 01:32:29;;;;;;;0.60;0.60;;;22.90;94.90;;;;;;5080063;28;20234;-71
2022/08/10 01:35:05;;;;;;;0.60;0.60;;;22.90;94.90;;;;;;5075533;28;20234;-71
2022/08/10 01:37:37;;;;;;;0.75;0.75;;;22.80;94.90;;;;;;5074551;28;20202;-69
2022/08/10 01:40:12;;;;;;;0.60;0.60;;;22.80;95.00;;;;;;5071746;28;20211;-70
2022/08/10 01:42:42;;;;;;;0.70;0.70;;;22.80;95.10;;;;;;5072343;28;20649;-70
2022/08/10 01:45:12;;;;;;;0.70;0.70;;;22.90;95.20;;;;;;5069744;28;20302;-70
2022/08/10 01:50:33;;;;;;;0.70;0.70;;;22.60;95.40;;;;;;5072174;28;20202;-71
2022/08/10 01:53:05;;;;;;;1.05;0.80;;;22.60;95.60;;;;;;5062877;28;20199;-70
2022/08/10 01:55:33;;;;;;;0.60;0.60;;;22.60;95.70;;;;;;5070914;28;20232;-71
2022/08/10 01:58:04;;;;;;;1.13;0.95;;;22.50;95.70;;;;;;5069642;28;20719;-70
2022/08/10 02:00:33;;;;;;;0.60;0.60;;;22.50;95.90;;;;;;5065733;28;20202;-72
2022/08/10 02:03:04;;;;;;;0.63;0.63;;;22.40;96.00;;;;;;5071191;28;20286;-70
2022/08/10 02:05:33;;;;;;;0.63;0.63;;;22.40;96.10;;;;;;5070436;28;20301;-71
2022/08/10 02:08:02;;;;;;;0.60;0.60;;;22.30;96.20;;;;;;5074265;28;20199;-70
2022/08/10 02:10:31;;;;;;;0.63;0.63;;;22.30;96.40;;;;;;5072638;28;20769;-71
2022/08/10 02:12:59;;;;;;;0.70;0.70;;;22.20;96.40;;;;;;5073030;28;20207;-70
2022/08/10 02:15:30;;;;;;;0.70;0.70;;;22.20;96.80;;;;;;5072823;28;20226;-71
2022/08/10 02:18:02;;;;;;;0.60;0.60;;;22.30;96.40;;;;;;5071655;28;20257;-71
2022/08/10 02:20:34;;;;;;;0.70;0.70;;;22.40;96.40;;;;;;5069035;28;20196;-70
2022/08/10 02:23:07;;;;;;;0.75;0.70;;;22.40;96.50;;;;;;5070941;28;20729;-71
2022/08/10 02:25:34;;;;;;;0.88;0.88;;;22.30;96.40;;;;;;5068740;28;20229;-73
2022/08/10 02:28:03;;;;;;;0.70;0.70;;;22.30;96.40;;;;;;5071137;28;20645;-70
2022/08/10 02:30:32;;;;;;;0.70;0.70;;;22.30;96.40;;;;;;5068207;28;20328;-72
2022/08/10 02:33:01;;;;;;;0.77;0.77;;;22.40;96.50;;;;;;5070052;28;20203;-71
2022/08/10 02:35:29;;;;;;;0.65;0.65;;;22.40;96.60;;;;;;5071414;28;20704;-71
2022/08/10 02:38:03;;;;;;;1.75;0.75;;;22.30;96.70;;;;;;5071244;28;20303;-71
2022/08/10 02:40:34;;;;;;;0.80;0.80;;;22.30;96.70;;;;;;5072615;28;21671;-71
2022/08/10 02:43:09;;;;;;;1.00;0.65;;;22.30;96.70;;;;;;5072502;28;20294;-71
2022/08/10 02:45:42;;;;;;;0.70;0.70;;;22.40;96.80;;;;;;5072883;28;20253;-71
2022/08/10 02:48:19;;;;;;;0.70;0.70;;;22.30;96.90;;;;;;5078414;28;20199;-71
2022/08/10 02:50:53;;;;;;;0.60;0.60;;;22.20;97.00;;;;;;5086980;28;20229;-71
2022/08/10 02:53:27;;;;;;;0.63;0.63;;;22.10;97.30;;;;;;5086618;28;20291;-71
2022/08/10 02:56:00;;;;;;;0.80;0.80;;;22.00;97.40;;;;;;5074599;28;20309;-69
2022/08/10 02:58:40;;;;;;;0.60;0.60;;;21.90;97.30;;;;;;5076462;28;20290;-70
2022/08/10 03:01:12;;;;;;;0.90;0.90;;;21.80;97.50;;;;;;5084407;28;20234;-71
2022/08/10 03:03:45;;;;;;;1.48;0.80;;;21.80;97.90;;;;;;5076847;28;20199;-70
2022/08/10 03:06:18;;;;;;;0.50;0.50;;;21.80;97.70;;;;;;5089530;22;20253;-63
2022/08/10 03:08:46;;;;;;;0.60;0.60;;;21.80;97.90;;;;;;5077106;28;20258;-59
2022/08/10 03:11:20;;;;;;;0.50;0.50;;;21.80;97.90;;;;;;5074315;28;20282;-60
2022/08/10 03:13:51;;;;;;;1.38;1.10;;;21.80;97.80;;;;;;5078733;28;20198;-60
2022/08/10 03:16:19;;;;;;;0.70;0.70;;;21.90;97.90;;;;;;5079342;28;20231;-61
2022/08/10 03:18:48;;;;;;;0.70;0.70;;;21.90;97.90;;;;;;5074870;28;20679;-61
2022/08/10 03:21:16;;;;;;;0.70;0.70;;;22.00;98.30;;;;;;5080434;28;20306;-60
2022/08/10 03:23:44;;;;;;;0.55;0.55;;;21.90;98.00;;;;;;5081407;28;20294;-60
2022/08/10 03:26:12;;;;;;;0.73;0.73;;;21.90;98.60;;;;;;5083919;28;20219;-62
2022/08/10 03:28:40;;;;;;;0.88;0.70;;;21.90;98.20;;;;;;5081202;28;20549;-61
2022/08/10 03:31:07;;;;;;;0.60;0.60;;;21.90;98.30;;;;;;5076525;28;20261;-61
2022/08/10 03:33:37;;;;;;;0.70;0.70;;;21.90;98.30;;;;;;5076055;28;20222;-61
2022/08/10 03:36:06;;;;;;;1.48;0.70;;;22.00;98.50;;;;;;5076169;28;20219;-61
2022/08/10 03:38:33;;;;;;;0.90;0.90;;;21.90;98.50;;;;;;5079644;28;20203;-61
2022/08/10 03:41:03;;;;;;;0.80;0.80;;;21.90;98.60;;;;;;5078159;28;20581;-61
2022/08/10 03:43:32;;;;;;;0.75;0.75;;;21.70;98.80;;;;;;5073843;28;20226;-60
2022/08/10 03:46:03;;;;;;;0.80;0.80;;;21.40;98.80;;;;;;5080141;28;20715;-60
2022/08/10 03:48:32;;;;;;;0.70;0.70;;;21.30;99.10;;;;;;5069423;28;20196;-60
2022/08/10 03:51:01;;;;;;;0.73;0.73;;;21.30;99.20;;;;;;5081983;28;20213;-59
2022/08/10 03:53:29;;;;;;;0.82;0.82;;;21.30;99.30;;;;;;5081085;28;20199;-62
2022/08/10 03:55:56;;;;;;;0.88;0.82;;;21.40;99.30;;;;;;5074014;28;20231;-61
2022/08/10 03:58:23;;;;;;;0.43;0.43;;;21.40;99.50;;;;;;5074181;28;20216;-62
2022/08/10 04:00:51;;;;;;;0.90;0.90;;;21.30;99.70;;;;;;5078285;28;20213;-62
2022/08/10 04:03:18;;;;;;;0.93;0.82;;;21.20;99.90;;;;;;5079298;28;20200;-60
2022/08/10 04:05:45;;;;;;;0.70;0.70;;;21.20;99.90;;;;;;5077624;28;20218;-61
2022/08/10 04:08:13;;;;;;;1.05;1.05;;;21.10;99.90;;;;;;5079810;28;20210;-61
2022/08/10 04:10:41;;;;;;;2.17;0.80;;;21.10;99.90;;;;;;5082001;28;20195;-60
2022/08/10 04:13:08;;;;;;;1.23;1.02;;;21.00;99.90;;;;;;5080172;28;20254;-60
2022/08/10 04:15:35;;;;;;;0.80;0.80;;;21.00;99.90;;;;;;5083626;28;20222;-62
2022/08/10 04:18:02;;;;;;;2.25;0.73;;;21.00;99.90;;;;;;5084319;28;20206;-60
2022/08/10 04:20:32;;;;;;;0.88;0.88;;;21.00;99.90;;;;;;5067289;28;20666;-60
2022/08/10 04:23:03;;;;;;;0.60;0.60;;;21.00;99.90;;;;;;5073167;28;20724;-61
2022/08/10 04:25:31;;;;;;;0.70;0.70;;;21.00;99.90;;;;;;5072035;28;20200;-62
2022/08/10 04:28:00;;;;;;;0.95;0.88;;;21.00;99.90;;;;;;5073299;28;20210;-60
2022/08/10 04:30:29;;;;;;;1.00;1.00;;;20.90;99.90;;;;;;5077659;28;20298;-60
2022/08/10 04:32:58;;;;;;;0.82;0.82;;;20.80;99.90;;;;;;5077336;28;20221;-60
2022/08/10 04:35:27;;;;;;;0.50;0.50;;;20.80;99.90;;;;;;5074217;28;20225;-60
2022/08/10 04:37:56;;;;;;;0.60;0.60;;;20.80;99.90;;;;;;5073350;28;20293;-60
2022/08/10 04:40:23;;;;;;;0.75;0.75;;;20.70;99.90;;;;;;5082965;28;20327;-60
2022/08/10 04:42:51;;;;;;;1.10;1.00;;;20.70;99.90;;;;;;5073175;28;20209;-60
2022/08/10 04:45:19;;;;;;;0.80;0.80;;;20.70;99.90;;;;;;5072091;28;20207;-60
2022/08/10 04:47:46;;;;;;;0.95;0.90;;;20.70;99.90;;;;;;5073676;28;20203;-60
2022/08/10 04:50:12;;;;;;;1.58;1.48;;;20.60;99.90;;;;;;5074363;28;20211;-60
2022/08/10 04:52:39;;;;;;;0.70;0.70;;;20.50;99.90;;;;;;5074694;28;20623;-62
2022/08/10 04:55:07;;;;;;;0.90;0.90;;;20.50;99.90;;;;;;5074561;28;20223;-59
2022/08/10 04:57:34;;;;;;;0.90;0.90;;;20.60;99.90;;;;;;5080423;28;20306;-59
2022/08/10 05:00:00;;;;;;;0.73;0.73;;;20.50;99.90;;;;;;5073333;28;20203;-60
2022/08/10 05:02:29;;;;;;;0.82;0.82;;;20.60;99.90;;;;;;5074591;28;20211;-60
2022/08/10 05:04:55;;;;;;;1.67;1.00;;;20.60;99.90;;;;;;5080732;28;20283;-62
2022/08/10 05:07:22;;;;;;;1.20;1.20;;;20.60;99.90;;;;;;5077256;28;20318;-62
2022/08/10 05:09:51;;;;;;;1.17;1.00;;;20.60;99.90;;;;;;5083323;28;20199;-61
2022/08/10 05:12:17;;;;;;;0.60;0.60;;;20.50;99.90;;;;;;5073977;28;20290;-62
2022/08/10 05:14:44;;;;;;;1.00;1.00;;;20.50;99.90;;;;;;5070514;28;20198;-61
2022/08/10 05:17:11;;;;;;;0.65;0.65;;;20.50;99.90;;;;;;5078112;28;20579;-60
2022/08/10 05:19:39;;;;;;;0.90;0.90;;;20.50;99.90;;;;;;5082906;28;20297;-60
2022/08/10 05:22:07;;;;;;;1.10;1.00;;;20.60;99.90;;;;;;5077387;28;20199;-60
2022/08/10 05:24:34;;;;;;;0.98;0.98;;;20.60;99.90;;;;;;5079628;28;20198;-62
2022/08/10 05:27:01;;;;;;;0.80;0.80;;;20.80;99.90;;;;;;5071259;28;20310;-62
2022/08/10 05:29:28;;;;;;;0.70;0.70;;;20.90;99.90;;;;;;5069930;28;20217;-60
2022/08/10 05:31:55;;;;;;;1.15;1.05;;;20.80;99.90;;;;;;5075255;28;20221;-59
2022/08/10 05:34:25;;;;;;;0.90;0.90;;;20.90;99.90;;;;;;5086087;28;20206;-62
2022/08/10 05:36:54;;;;;;;0.95;0.95;;;20.80;99.90;;;;;;5078296;28;20234;-61
2022/08/10 05:39:22;;;;;;;1.00;1.00;;;20.90;99.90;;;;;;5070260;28;20195;-61
2022/08/10 05:41:51;;;;;;;3.83;1.25;;;21.00;99.90;;;;;;5071151;28;20207;-59
2022/08/10 05:44:19;;;;;;;0.98;0.98;;;21.20;99.90;;;;;;5070212;28;20677;-60
2022/08/10 05:46:47;;;;;;;0.88;0.88;;;21.30;99.90;;;;;;5075097;28;20296;-60
2022/08/10 05:49:14;;;;;;;0.93;0.93;;;21.30;99.90;;;;;;5073293;28;20231;-60
2022/08/10 05:51:42;;;;;;;1.08;1.08;;;21.30;99.90;;;;;;5075904;28;20203;-60
2022/08/10 05:54:14;;;;;;;1.17;1.05;;;21.50;99.90;;;;;;5065482;28;20210;-59
2022/08/10 05:56:44;;;;;;;2.28;1.13;;;21.60;99.90;;;;;;5064179;28;20595;-59
2022/08/10 05:59:12;;;;;;;1.15;1.13;;;21.70;99.90;;;;;;5067009;28;20210;-59
2022/08/10 06:01:42;;;;;;;1.33;1.23;;;21.70;99.90;;;;;;5064145;28;20199;-59
2022/08/10 06:04:11;;;;;;;1.92;1.15;;;21.90;99.90;;;;;;5071577;28;20199;-60
2022/08/10 06:06:39;;;;;;;1.42;1.15;;;22.00;99.90;;;;;;5071550;28;20762;-60
2022/08/10 06:09:09;;;;;;;4.75;1.20;;;22.00;99.90;;;;;;5070089;28;20203;-60
2022/08/10 06:11:38;;;;;;;1.00;1.00;;;22.10;99.90;;;;;;5075197;28;20203;-59
2022/08/10 06:16:53;;;;;;;1.40;1.30;;;22.30;99.90;;;;;;5065973;28;20606;-60
2022/08/10 06:19:20;;;;;;;1.38;1.20;;;22.30;99.90;;;;;;5076464;28;20203;-60
2022/08/10 06:21:48;;;;;;;1.20;1.10;;;22.40;99.90;;;;;;5081988;28;20632;-60
2022/08/10 06:24:17;;;;;;;1.38;1.08;;;22.40;99.90;;;;;;5079594;28;20736;-61
2022/08/10 06:26:45;;;;;;;2.28;1.40;;;22.40;99.90;;;;;;5078519;28;20593;-60
2022/08/10 06:29:14;;;;;;;1.20;1.10;;;22.30;99.90;;;;;;5069816;28;20205;-60
2022/08/10 06:31:45;;;;;;;1.40;1.27;;;22.30;99.90;;;;;;5071416;28;20238;-60
2022/08/10 06:34:14;;;;;;;0.90;0.90;;;22.40;99.90;;;;;;5075689;28;20205;-60
2022/08/10 06:36:45;;;;;;;1.10;1.00;;;22.30;99.90;;;;;;5074728;28;20313;-61
2022/08/10 06:39:12;;;;;;;1.10;1.00;;;22.20;99.90;;;;;;5075424;28;20651;-59
2022/08/10 06:41:44;;;;;;;3.53;1.30;;;22.20;99.90;;;;;;5078122;28;20205;-60
2022/08/10 06:44:18;;;;;;;1.08;1.00;;;22.30;99.90;;;;;;5076958;28;20673;-59
2022/08/10 06:46:50;;;;;;;1.13;1.02;;;22.50;99.90;;;;;;5080189;28;20695;-62
2022/08/10 06:49:21;;;;;;;1.38;1.00;;;22.70;99.90;;;;;;5079426;28;20318;-60
2022/08/10 06:51:52;;;;;;;1.60;1.02;;;22.90;99.90;;;;;;5081948;28;20198;-60
2022/08/10 06:54:22;;;;;;;1.13;1.02;;;22.90;99.90;;;;;;5072453;28;20659;-59
2022/08/10 06:56:53;;;;;;;0.85;0.85;;;22.90;99.90;;;;;;5070960;28;20826;-59
2022/08/10 06:59:25;;;;;;;1.00;1.00;;;22.90;99.90;;;;;;5073235;28;20248;-60
2022/08/10 07:01:56;;;;;;;1.10;1.00;;;23.10;99.90;;;;;;5076624;28;20290;-60
2022/08/10 07:04:29;;;;;;;1.20;1.10;;;23.40;99.90;;;;;;5074236;28;20290;-60
2022/08/10 07:06:57;;;;;;;1.48;1.10;;;23.60;99.90;;;;;;5080167;28;20242;-59
2022/08/10 07:09:25;;;;;;;1.63;1.20;;;23.60;99.90;;;;;;5076000;28;20653;-61
2022/08/10 07:11:55;;;;;;;1.17;1.10;;;23.50;99.90;;;;;;5070364;28;20218;-60
2022/08/10 07:14:24;;;;;;;1.65;1.00;;;23.50;99.90;;;;;;5077755;28;20195;-59
2022/08/10 07:16:51;;;;;;;0.95;0.95;;;23.80;99.90;;;;;;5071155;28;20740;-62
2022/08/10 07:19:19;;;;;;;1.00;1.00;;;23.80;99.90;;;;;;5070739;28;20262;-60
2022/08/10 07:21:47;;;;;;;3.15;0.90;;;23.80;99.90;;;;;;5070798;28;20675;-60
2022/08/10 07:24:16;;;;;;;0.90;0.90;;;23.90;99.90;;;;;;5071828;28;20246;-60
2022/08/10 07:26:47;;;;;;;1.02;1.00;;;24.00;99.90;;;;;;5074274;28;20330;-60
2022/08/10 07:29:15;;;;;;;0.90;0.90;;;24.20;99.90;;;;;;5076309;28;20195;-60
2022/08/10 07:31:44;;;;;;;1.50;1.05;;;24.30;99.90;;;;;;5076889;28;20632;-61
2022/08/10 07:34:14;;;;;;;1.58;1.20;;;24.40;99.90;;;;;;5076717;28;20618;-61
2022/08/10 07:36:44;;;;;;;1.15;1.05;;;24.60;99.90;;;;;;5079445;28;20233;-60
2022/08/10 07:39:13;;;;;;;1.10;1.02;;;24.60;99.90;;;;;;5074930;28;20191;-61
2022/08/10 07:41:42;;;;;;;1.02;0.90;;;24.60;99.90;;;;;;5078988;28;20221;-61
2022/08/10 07:44:11;;;;;;;1.00;1.00;;;24.50;99.90;;;;;;5075613;28;20200;-61
2022/08/10 07:46:41;;;;;;;0.85;0.85;;;24.70;99.90;;;;;;5075101;28;20219;-61
2022/08/10 07:49:14;;;;;;;1.23;1.10;;;25.00;99.90;;;;;;5076973;28;20207;-61
2022/08/10 07:51:42;;;;;;;1.27;1.10;;;25.20;99.90;;;;;;5077343;28;20208;-61
2022/08/10 07:54:14;;;;;;;2.25;1.30;;;25.30;99.90;;;;;;5077476;28;20203;-61
2022/08/10 07:56:43;;;;;;;2.72;1.00;;;25.40;99.90;;;;;;5079815;28;20223;-62
2022/08/10 07:59:14;;;;;;;1.20;1.10;;;25.60;99.90;;;;;;5077412;28;20238;-61
2022/08/10 08:01:42;;;;;;;2.08;1.20;;;25.60;99.90;;;;;;5082147;28;20286;-61
2022/08/10 08:04:13;;;;;;;1.77;0.90;;;25.60;99.90;;;;;;5073612;28;20298;-61
2022/08/10 08:06:41;;;;;;;1.25;0.90;;;25.70;99.90;;;;;;5072771;28;20222;-60
2022/08/10 08:09:09;;;;;;;0.98;0.88;;;25.90;99.90;;;;;;5075301;28;20217;-61
2022/08/10 08:11:37;;;;;;;0.85;0.85;;;26.00;99.90;;;;;;5074540;28;20669;-61
2022/08/10 08:14:07;;;;;;;0.93;0.90;;;26.30;99.90;;;;;;5071690;28;20290;-60
2022/08/10 08:16:36;;;;;;;1.23;0.88;;;26.50;99.90;;;;;;5075789;28;20223;-60
2022/08/10 08:19:03;;;;;;;0.80;0.80;;;26.70;99.90;;;;;;5077912;28;20209;-60
2022/08/10 08:21:33;;;;;;;0.80;0.80;;;26.90;99.20;;;;;;5077658;28;20679;-61
2022/08/10 08:24:01;;;;;;;0.80;0.80;;;27.10;98.20;;;;;;5079204;28;20307;-62
2022/08/10 08:26:29;;;;;;;1.00;0.82;;;27.40;97.90;;;;;;5074154;28;20306;-61
2022/08/10 08:28:57;;;;;;;0.80;0.80;;;27.60;96.50;;;;;;5075738;28;20333;-62
2022/08/10 08:31:24;;;;;;;0.70;0.70;;;27.70;93.80;;;;;;5076388;28;20276;-61
2022/08/10 08:33:53;;;;;;;1.20;1.10;;;27.80;93.20;;;;;;5085470;28;20203;-61
2022/08/10 08:36:21;;;;;;;0.63;0.63;;;27.90;93.00;;;;;;5073250;28;20235;-60
2022/08/10 08:38:51;;;;;;;1.40;1.00;;;28.10;91.60;;;;;;5073617;28;20195;-61
2022/08/10 08:41:41;;;;;;;2.25;0.88;;;28.20;91.60;;;;;;5077379;28;20581;-61
2022/08/10 08:44:14;;;;;;;0.68;0.68;;;28.20;90.00;;;;;;5078195;28;20241;-61
2022/08/10 08:46:56;;;;;;;0.70;0.70;;;28.40;91.30;;;;;;5074721;28;20215;-62
2022/08/10 08:49:55;;;;;;;0.60;0.60;;;28.60;90.10;;;;;;5076203;28;20289;-60
2022/08/10 08:52:33;;;;;;;0.70;0.70;;;28.60;89.20;;;;;;5073105;28;20294;-60
2022/08/10 08:55:14;;;;;;;0.80;0.80;;;28.80;90.00;;;;;;5071428;28;20204;-61
2022/08/10 08:57:49;;;;;;;0.65;0.65;;;28.90;90.10;;;;;;5070236;28;20313;-62
2022/08/10 09:00:20;;;;;;;0.70;0.70;;;29.00;88.20;;;;;;5071366;28;20222;-61
2022/08/10 09:03:16;;;;;;;2.78;1.33;;;29.20;88.60;;;;;;5066369;28;20208;-62
2022/08/10 09:05:54;;;;;;;2.25;1.20;;;29.30;87.50;;;;;;5061566;28;20296;-62
2022/08/10 09:08:41;;;;;;;1.00;0.70;;;29.40;87.90;;;;;;5078131;22;20315;-71
2022/08/10 09:11:22;;;;;;;0.90;0.85;;;29.40;85.70;;;;;;5062639;28;20286;-71
2022/08/10 09:14:00;;;;;;;1.08;0.88;;;29.50;85.90;;;;;;5056388;28;20192;-71
2022/08/10 09:16:34;;;;;;;0.68;0.68;;;29.50;84.60;;;;;;5055463;28;20310;-71
2022/08/10 09:19:08;;;;;;;1.20;1.00;;;29.70;84.60;;;;;;5052782;28;20672;-71
2022/08/10 09:21:43;;;;;;;0.85;0.80;;;29.70;82.50;;;;;;5042883;28;20320;-71
2022/08/10 09:24:15;;;;;;;0.70;0.70;;;29.60;80.90;;;;;;5043030;28;20603;-72
2022/08/10 09:26:49;;;;;;;2.08;1.20;;;29.60;81.70;;;;;;5048684;28;20820;-70
2022/08/10 09:29:24;;;;;;;0.65;0.65;;;29.80;79.40;;;;;;5049480;28;20206;-71
2022/08/10 09:31:56;;;;;;;0.75;0.75;;;29.70;78.60;;;;;;5053068;28;20211;-71
2022/08/10 09:34:29;;;;;;;5.97;1.08;;;29.80;80.00;;;;;;5061957;28;20192;-71
2022/08/10 09:37:03;;;;;;;0.50;0.50;;;29.90;78.90;;;;;;5063686;28;20259;-71
2022/08/10 09:39:40;;;;;;;3.63;1.30;;;29.80;78.60;;;;;;5061572;28;20207;-71
2022/08/10 09:42:15;;;;;;;0.88;0.50;;;29.90;77.70;;;;;;5057701;28;20291;-71
2022/08/10 09:44:49;;;;;;;0.70;0.70;;;30.00;77.00;;;;;;5051832;28;20737;-72
2022/08/10 09:47:31;;;;;;;0.60;0.60;;;30.00;77.40;;;;;;5060512;28;20224;-71
2022/08/10 09:50:07;;;;;;;0.98;0.65;;;30.10;76.40;;;;;;5052173;28;20200;-70
2022/08/10 09:52:43;;;;;;;1.65;0.77;;;30.30;78.10;;;;;;5052596;28;20290;-71
2022/08/10 09:55:17;;;;;;;0.90;0.90;;;30.10;77.50;;;;;;5049499;28;20205;-71
2022/08/10 09:58:00;;;;;;;0.73;0.70;;;30.20;76.60;;;;;;5051770;28;20238;-71
2022/08/10 10:00:34;;;;;;;0.82;0.65;;;30.30;76.20;;;;;;5055609;28;20767;-71
2022/08/10 10:03:16;;;;;;;0.98;0.85;;;30.40;77.40;;;;;;5052344;28;20295;-71
2022/08/10 10:05:50;;;;;;;0.73;0.73;;;30.60;76.80;;;;;;5051301;28;20733;-71
2022/08/10 10:08:24;;;;;;;0.77;0.77;;;30.70;77.70;;;;;;5053926;28;20231;-71
2022/08/10 10:10:59;;;;;;;0.90;0.90;;;30.70;77.30;;;;;;5053357;28;20291;-72
2022/08/10 10:13:35;;;;;;;1.08;0.70;;;30.70;77.40;;;;;;5052093;28;20298;-71
2022/08/10 10:16:13;;;;;;;0.70;0.70;;;30.80;77.80;;;;;;5052991;28;20238;-71
2022/08/10 10:18:45;;;;;;;1.73;0.80;;;30.90;78.10;;;;;;5049762;28;20297;-71
2022/08/10 10:21:20;;;;;;;0.70;0.70;;;30.80;76.50;;;;;;5052523;28;20208;-71
2022/08/10 10:23:56;;;;;;;1.70;0.70;;;31.00;76.90;;;;;;5053265;28;20203;-71
2022/08/10 10:26:44;;;;;;;0.60;0.60;;;31.00;77.60;;;;;;5054355;28;20295;-71
2022/08/10 10:29:25;;;;;;;1.30;1.20;;;31.20;76.60;;;;;;5058329;28;20200;-71
2022/08/10 10:31:56;;;;;;;1.50;0.70;;;31.10;75.60;;;;;;5055482;28;20207;-71
2022/08/10 10:34:39;;;;;;;0.98;0.95;;;31.10;75.80;;;;;;5059881;28;20257;-71
2022/08/10 10:37:07;;;;;;;0.98;0.75;;;31.00;74.80;;;;;;5052169;28;20306;-71
2022/08/10 10:39:35;;;;;;;1.85;1.13;;;31.00;76.20;;;;;;5058412;28;20196;-71
2022/08/10 10:42:16;;;;;;;0.80;0.80;;;31.20;77.10;;;;;;5050076;28;20294;-71
2022/08/10 10:44:55;;;;;;;1.30;0.90;;;31.20;76.10;;;;;;5052595;28;20196;-70
2022/08/10 10:47:45;;;;;;;0.70;0.70;;;31.40;76.20;;;;;;5051218;28;20306;-72
2022/08/10 10:50:16;;;;;;;1.00;0.90;;;31.50;75.00;;;;;;5057585;28;20197;-70
2022/08/10 10:52:54;;;;;;;2.55;1.25;;;31.20;74.40;;;;;;5061575;28;20208;-71
2022/08/10 10:55:30;;;;;;;0.90;0.90;;;31.20;74.90;;;;;;5056141;28;20835;-71
2022/08/10 10:58:04;;;;;;;0.63;0.63;;;31.20;75.20;;;;;;5061663;28;21053;-70
2022/08/10 11:00:41;;;;;;;0.65;0.60;;;31.30;74.80;;;;;;5053474;28;20195;-71
2022/08/10 11:03:21;;;;;;;1.33;1.23;;;31.40;75.30;;;;;;5056105;28;20732;-69
2022/08/10 11:05:54;;;;;;;1.00;0.85;;;31.60;76.40;;;;;;5047298;28;20576;-71
2022/08/10 11:08:25;;;;;;;0.88;0.88;;;31.70;76.70;;;;;;5063978;28;20238;-71
2022/08/10 11:10:55;;;;;;;0.75;0.75;;;31.70;76.40;;;;;;5054746;28;20653;-71
2022/08/10 11:13:33;;;;;;;1.10;1.00;;;31.70;76.00;;;;;;5056344;28;20208;-70
2022/08/10 11:16:06;;;;;;;0.98;0.70;;;31.90;76.20;;;;;;5053665;28;20321;-71
2022/08/10 11:18:59;;;;;;;1.33;1.15;;;31.80;75.90;;;;;;5055728;28;20255;-70
2022/08/10 11:21:43;;;;;;;0.80;0.80;;;31.90;74.70;;;;;;5062909;28;20713;-70
2022/08/10 11:24:20;;;;;;;0.77;0.70;;;31.90;74.80;;;;;;5065989;28;20214;-70
2022/08/10 11:26:49;;;;;;;0.70;0.70;;;31.90;74.30;;;;;;5054288;28;20306;-70
2022/08/10 11:29:22;;;;;;;0.77;0.77;;;32.00;74.20;;;;;;5062730;28;20291;-71
2022/08/10 11:31:59;;;;;;;1.00;0.90;;;31.70;72.00;;;;;;5054022;28;20580;-71
2022/08/10 11:34:35;;;;;;;0.90;0.80;;;31.90;73.40;;;;;;5050109;28;20964;-71
2022/08/10 11:37:10;;;;;;;0.80;0.80;;;31.90;73.40;;;;;;5051780;28;20227;-70
2022/08/10 11:39:44;;;;;;;0.70;0.70;;;31.80;72.10;;;;;;5045808;28;20203;-70
2022/08/10 11:42:20;;;;;;;0.60;0.60;;;31.80;71.20;;;;;;5053628;28;20350;-71
2022/08/10 11:44:51;;;;;;;0.50;0.50;;;31.80;70.20;;;;;;5048451;28;20214;-70
2022/08/10 11:47:22;;;;;;;1.23;0.95;;;31.50;70.50;;;;;;5051210;28;20647;-71
2022/08/10 11:49:55;;;;;;;1.58;0.70;;;31.60;70.50;;;;;;5052696;28;20655;-70
2022/08/10 11:52:34;;;;;;;0.90;0.73;;;31.80;70.70;;;;;;5054975;28;20570;-70
2022/08/10 11:55:09;;;;;;;2.95;0.70;;;32.00;70.50;;;;;;5059240;28;20542;-70
2022/08/10 11:57:37;;;;;;;0.70;0.70;;;32.20;71.40;;;;;;5046884;28;20223;-70
2022/08/10 12:00:06;;;;;;;2.03;0.82;;;32.20;70.60;;;;;;5050108;28;20200;-71
2022/08/10 12:02:42;;;;;;;1.17;0.80;;;32.20;70.90;;;;;;5053715;28;20665;-70
2022/08/10 12:05:15;;;;;;;0.70;0.70;;;32.30;71.50;;;;;;5051213;28;20234;-70
2022/08/10 12:07:47;;;;;;;1.08;0.60;;;32.40;71.10;;;;;;5045001;28;20242;-70
2022/08/10 12:10:15;;;;;;;0.50;0.50;;;32.40;70.40;;;;;;5047680;28;20295;-70
2022/08/10 12:12:49;;;;;;;0.45;0.45;;;32.40;70.90;;;;;;5050133;28;20214;-70
2022/08/10 12:15:21;;;;;;;1.85;0.90;;;32.40;69.10;;;;;;5048413;28;20214;-70
2022/08/10 12:17:53;;;;;;;1.00;0.80;;;32.20;68.80;;;;;;5048818;28;20231;-71
2022/08/10 12:20:27;;;;;;;0.60;0.52;;;32.20;68.60;;;;;;5050172;28;20551;-70
2022/08/10 12:22:59;;;;;;;1.05;0.68;;;32.20;68.00;;;;;;5050406;28;20204;-70
2022/08/10 12:25:34;;;;;;;0.80;0.80;;;32.20;67.80;;;;;;5043717;28;20204;-70
2022/08/10 12:28:09;;;;;;;1.20;0.73;;;32.30;69.50;;;;;;5040491;28;20216;-70
2022/08/10 12:30:42;;;;;;;0.60;0.60;;;32.50;69.50;;;;;;5038278;28;20208;-70
2022/08/10 12:33:20;;;;;;;0.70;0.70;;;32.60;70.50;;;;;;5039842;28;20197;-71
2022/08/10 12:35:52;;;;;;;1.08;0.80;;;32.60;68.70;;;;;;5042495;28;20737;-69
2022/08/10 12:38:27;;;;;;;0.63;0.63;;;32.60;69.30;;;;;;5045372;28;20228;-71
2022/08/10 12:40:58;;;;;;;0.82;0.82;;;32.70;69.50;;;;;;5041667;28;20774;-70
2022/08/10 12:43:29;;;;;;;0.60;0.60;;;32.70;70.20;;;;;;5044768;28;20224;-69
2022/08/10 12:46:03;;;;;;;0.70;0.70;;;32.90;70.80;;;;;;5047707;28;20235;-69
2022/08/10 12:48:36;;;;;;;0.63;0.60;;;32.90;69.30;;;;;;5043514;28;20216;-69
2022/08/10 12:51:09;;;;;;;0.98;0.80;;;32.80;69.70;;;;;;5041134;28;20272;-70
2022/08/10 12:53:46;;;;;;;0.63;0.57;;;32.80;68.60;;;;;;5040355;28;20219;-70
2022/08/10 12:56:21;;;;;;;1.15;0.82;;;32.80;68.20;;;;;;5046086;28;20286;-71
2022/08/10 12:58:48;;;;;;;0.50;0.50;;;32.90;68.60;;;;;;5041506;28;20232;-69
2022/08/10 13:01:17;;;;;;;0.70;0.50;;;32.80;67.70;;;;;;5039892;28;20265;-69
2022/08/10 13:03:50;;;;;;;1.25;0.75;;;33.00;68.80;;;;;;5035479;28;20284;-70
2022/08/10 13:06:18;;;;;;;0.95;0.70;;;33.00;69.40;;;;;;5040782;28;20388;-69
2022/08/10 13:11:32;;;;;;;0.73;0.73;;;32.80;67.60;;;;;;5043541;28;20206;-68
2022/08/10 13:14:03;;;;;;;7.72;1.30;;;32.80;67.30;;;;;;5049737;28;20218;-67
2022/08/10 13:16:32;;;;;;;0.88;0.82;;;32.80;67.40;;;;;;5052362;28;20200;-67
2022/08/10 13:19:03;;;;;;;8.38;1.77;;;32.80;66.60;;;;;;5054630;28;20228;-67